Time;durP1;ratioP1;P1;durP2;ratioP2;P2;SDS_P1;SDS_P2;PMS_P1;PMS_P2;Temp;Humidity;BMP_temperature;BMP_pressure;BME280_temperature;BME280_humidity;BME280_pressure;Samples;Min_cycle;Max_cycle;Signal;HPM_P1;HPM_P2
2023/07/03 00:01:27;;;;;;;15.25;4.32;;;;;;;;;;5083017;28;20216;-74
2023/07/03 00:03:52;;;;;;;16.45;4.85;;;;;;;;;;5087097;28;20226;-73
2023/07/03 00:06:18;;;;;;;20.25;4.65;;;;;;;;;;5080807;28;20199;-74
2023/07/03 00:08:43;;;;;;;17.50;5.00;;;;;;;;;;5077133;28;20194;-74
2023/07/03 00:11:08;;;;;;;13.45;4.78;;;;;;;;;;5086314;28;20215;-73
2023/07/03 00:13:34;;;;;;;19.98;5.05;;;;;;;;;;5085754;28;20309;-74
2023/07/03 00:16:01;;;;;;;21.10;4.82;;;;;;;;;;5073518;28;20691;-76
2023/07/03 00:18:27;;;;;;;18.40;4.95;;;;;;;;;;5059307;28;20195;-74
2023/07/03 00:20:54;;;;;;;14.98;4.63;;;;;;;;;;5080131;28;20198;-72
2023/07/03 00:23:21;;;;;;;19.33;4.75;;;;;;;;;;5081841;28;20432;-74
2023/07/03 00:25:47;;;;;;;16.77;5.00;;;;;;;;;;5073160;28;20199;-71
2023/07/03 00:28:12;;;;;;;22.00;5.95;;;;;;;;;;5076850;28;20252;-74
2023/07/03 00:30:37;;;;;;;13.40;4.55;;;;;;;;;;5090906;28;20235;-74
2023/07/03 00:33:03;;;;;;;14.38;4.80;;;;;;;;;;5084208;28;20192;-74
2023/07/03 00:35:28;;;;;;;17.92;4.57;;;;;;;;;;5088139;28;20667;-74
2023/07/03 00:37:53;;;;;;;17.27;4.47;;;;;;;;;;5068379;28;20185;-74
2023/07/03 00:40:19;;;;;;;17.20;4.28;;;;;;;;;;5080394;28;20200;-73
2023/07/03 00:42:44;;;;;;;23.50;4.70;;;;;;;;;;5088734;28;20192;-73
2023/07/03 00:45:10;;;;;;;24.33;4.47;;;;;;;;;;5082873;28;20568;-74
2023/07/03 00:47:36;;;;;;;22.42;4.63;;;;;;;;;;5080859;28;20297;-74
2023/07/03 00:50:01;;;;;;;17.23;5.07;;;;;;;;;;5081400;28;20772;-74
2023/07/03 00:52:26;;;;;;;19.38;4.30;;;;;;;;;;5078752;28;20469;-74
2023/07/03 00:54:53;;;;;;;14.73;4.07;;;;;;;;;;5064955;28;20256;-73
2023/07/03 00:57:23;;;;;;;16.85;4.60;;;;;;;;;;5082373;28;20225;-74
2023/07/03 00:59:48;;;;;;;18.00;4.53;;;;;;;;;;5083448;28;20645;-75
2023/07/03 01:02:58;;;;;;;19.45;5.35;;;;;;;;;;5082460;28;20201;-73
2023/07/03 01:05:31;;;;;;;17.95;4.88;;;;;;;;;;5025709;28;20223;-72
2023/07/03 01:07:58;;;;;;;20.00;4.80;;;;;;;;;;5030993;28;20190;-70
2023/07/03 01:10:25;;;;;;;19.75;4.35;;;;;;;;;;5063519;28;20225;-72
2023/07/03 01:12:58;;;;;;;26.58;4.57;;;;;;;;;;5088991;28;20211;-75
2023/07/03 01:15:27;;;;;;;19.58;4.65;;;;;;;;;;5082988;28;20277;-75
2023/07/03 01:17:54;;;;;;;17.40;4.53;;;;;;;;;;5080909;28;20196;-75
2023/07/03 01:20:22;;;;;;;22.33;5.07;;;;;;;;;;5087011;28;20509;-74
2023/07/03 01:23:02;;;;;;;22.40;4.88;;;;;;;;;;5085458;28;20198;-75
2023/07/03 01:25:28;;;;;;;15.90;4.53;;;;;;;;;;5082290;28;20191;-71
2023/07/03 01:27:56;;;;;;;20.70;5.03;;;;;;;;;;5078310;28;20188;-71
2023/07/03 01:30:23;;;;;;;25.48;5.82;;;;;;;;;;5089655;28;20827;-75
2023/07/03 01:32:52;;;;;;;14.90;4.05;;;;;;;;;;5082113;28;20197;-73
2023/07/03 01:35:18;;;;;;;23.48;4.68;;;;;;;;;;5074139;28;20727;-71
2023/07/03 01:37:47;;;;;;;19.52;4.50;;;;;;;;;;5086919;28;20219;-74
2023/07/03 01:40:15;;;;;;;21.27;4.85;;;;;;;;;;5081163;28;20184;-75
2023/07/03 01:42:41;;;;;;;18.52;4.97;;;;;;;;;;5084904;28;20585;-74
2023/07/03 01:45:08;;;;;;;17.30;4.60;;;;;;;;;;5073631;28;20220;-75
2023/07/03 01:47:34;;;;;;;17.85;4.70;;;;;;;;;;5089893;28;20183;-74
2023/07/03 01:50:00;;;;;;;24.85;5.80;;;;;;;;;;5077115;28;20208;-73
2023/07/03 01:52:36;;;;;;;19.38;5.43;;;;;;;;;;5089706;28;20534;-73
2023/07/03 01:55:16;;;;;;;23.40;4.93;;;;;;;;;;5078471;28;20260;-72
2023/07/03 01:57:48;;;;;;;16.50;4.25;;;;;;;;;;5072357;28;20199;-72
2023/07/03 02:00:19;;;;;;;17.48;4.25;;;;;;;;;;5078598;28;20224;-73
2023/07/03 02:02:48;;;;;;;19.05;4.13;;;;;;;;;;5087459;28;20199;-73
2023/07/03 02:05:18;;;;;;;21.90;4.35;;;;;;;;;;5088956;28;20195;-73
2023/07/03 02:07:45;;;;;;;27.13;5.00;;;;;;;;;;5087739;28;20196;-73
2023/07/03 02:10:11;;;;;;;18.73;4.38;;;;;;;;;;5087174;28;20794;-73
2023/07/03 02:12:36;;;;;;;18.55;4.43;;;;;;;;;;5070716;28;20192;-75
2023/07/03 02:15:03;;;;;;;18.10;4.65;;;;;;;;;;5081276;28;20180;-74
2023/07/03 02:17:29;;;;;;;19.45;4.38;;;;;;;;;;5088618;28;20224;-75
2023/07/03 02:19:54;;;;;;;22.77;5.32;;;;;;;;;;5080196;28;20185;-74
2023/07/03 02:22:20;;;;;;;21.50;5.13;;;;;;;;;;5087693;28;20192;-72
2023/07/03 02:24:46;;;;;;;17.45;4.57;;;;;;;;;;5083611;28;20192;-73
2023/07/03 02:27:11;;;;;;;17.23;4.07;;;;;;;;;;5085157;28;20191;-71
2023/07/03 02:29:36;;;;;;;23.77;5.03;;;;;;;;;;5073662;28;20254;-73
2023/07/03 02:32:08;;;;;;;16.33;4.32;;;;;;;;;;5082207;28;20251;-70
2023/07/03 02:34:34;;;;;;;18.42;4.70;;;;;;;;;;5090118;28;20257;-75
2023/07/03 02:36:59;;;;;;;17.20;5.13;;;;;;;;;;5080991;28;20180;-71
2023/07/03 02:39:25;;;;;;;17.52;4.95;;;;;;;;;;5074661;28;20196;-74
2023/07/03 02:41:50;;;;;;;21.08;4.13;;;;;;;;;;5082727;28;20668;-73
2023/07/03 02:44:16;;;;;;;15.23;4.38;;;;;;;;;;5082174;28;20208;-74
2023/07/03 02:46:42;;;;;;;20.50;4.72;;;;;;;;;;5081995;28;20594;-75
2023/07/03 02:49:07;;;;;;;15.70;4.20;;;;;;;;;;5075248;28;20267;-73
2023/07/03 02:51:33;;;;;;;32.42;4.78;;;;;;;;;;5088531;28;20184;-74
2023/07/03 02:53:58;;;;;;;21.65;4.88;;;;;;;;;;5090256;28;20287;-71
2023/07/03 02:56:24;;;;;;;18.67;4.13;;;;;;;;;;5089943;28;20636;-75
2023/07/03 02:58:50;;;;;;;18.90;3.90;;;;;;;;;;5063439;28;20207;-70
2023/07/03 03:01:15;;;;;;;20.27;4.53;;;;;;;;;;5081334;28;20208;-73
2023/07/03 03:03:40;;;;;;;25.08;4.97;;;;;;;;;;5082195;28;20234;-73
2023/07/03 03:06:06;;;;;;;20.17;4.30;;;;;;;;;;5077039;28;20249;-74
2023/07/03 03:08:31;;;;;;;15.15;3.80;;;;;;;;;;5082042;28;20192;-72
2023/07/03 03:10:57;;;;;;;19.60;4.75;;;;;;;;;;5081115;28;20294;-74
2023/07/03 03:13:22;;;;;;;18.48;4.55;;;;;;;;;;5082157;28;20647;-75
2023/07/03 03:15:48;;;;;;;23.33;5.00;;;;;;;;;;5079030;28;20303;-71
2023/07/03 03:18:13;;;;;;;19.50;4.20;;;;;;;;;;5086478;28;20748;-71
2023/07/03 03:20:39;;;;;;;20.33;4.38;;;;;;;;;;5083186;28;20585;-73
2023/07/03 03:23:05;;;;;;;19.40;4.65;;;;;;;;;;5083778;28;20210;-70
2023/07/03 03:25:30;;;;;;;22.15;4.53;;;;;;;;;;5088733;28;20451;-74
2023/07/03 03:27:56;;;;;;;25.20;4.80;;;;;;;;;;5084935;28;20192;-75
2023/07/03 03:30:21;;;;;;;24.05;5.68;;;;;;;;;;5089412;28;20765;-75
2023/07/03 03:32:47;;;;;;;19.80;5.00;;;;;;;;;;5076379;28;20218;-75
2023/07/03 03:35:12;;;;;;;21.33;4.88;;;;;;;;;;5086909;28;20275;-71
2023/07/03 03:37:38;;;;;;;20.33;5.03;;;;;;;;;;5077753;28;20180;-74
2023/07/03 03:40:07;;;;;;;25.48;5.25;;;;;;;;;;5090772;28;20698;-74
2023/07/03 03:42:33;;;;;;;23.48;6.85;;;;;;;;;;5075876;28;20196;-73
2023/07/03 03:44:58;;;;;;;21.55;5.43;;;;;;;;;;5071750;28;20180;-74
2023/07/03 03:47:24;;;;;;;24.83;4.90;;;;;;;;;;5085492;28;20975;-74
2023/07/03 03:49:49;;;;;;;33.40;5.47;;;;;;;;;;5091884;28;20204;-74
2023/07/03 03:52:15;;;;;;;21.23;4.53;;;;;;;;;;5091435;28;20192;-74
2023/07/03 03:54:40;;;;;;;25.25;5.05;;;;;;;;;;5075906;28;20192;-74
2023/07/03 03:57:06;;;;;;;22.67;4.85;;;;;;;;;;5075668;28;20563;-75
2023/07/03 03:59:31;;;;;;;25.67;5.35;;;;;;;;;;5077566;28;20184;-75
2023/07/03 04:01:57;;;;;;;21.98;4.63;;;;;;;;;;5084388;28;20213;-73
2023/07/03 04:04:22;;;;;;;22.73;4.90;;;;;;;;;;5086399;28;20639;-74
2023/07/03 04:06:47;;;;;;;24.27;5.25;;;;;;;;;;5091329;28;20663;-73
2023/07/03 04:09:13;;;;;;;20.17;5.00;;;;;;;;;;5078564;28;20193;-72
2023/07/03 04:11:38;;;;;;;23.05;4.95;;;;;;;;;;5087802;28;20569;-74
2023/07/03 04:14:03;;;;;;;26.23;4.80;;;;;;;;;;5064876;28;20188;-75
2023/07/03 04:16:31;;;;;;;27.65;4.80;;;;;;;;;;5084621;28;20336;-73
2023/07/03 04:18:57;;;;;;;26.42;5.82;;;;;;;;;;5079193;28;20191;-73
2023/07/03 04:21:23;;;;;;;24.65;5.03;;;;;;;;;;5090039;28;20613;-75
2023/07/03 04:23:51;;;;;;;30.27;5.03;;;;;;;;;;5070055;28;20279;-75
2023/07/03 04:26:16;;;;;;;23.13;5.05;;;;;;;;;;5088409;28;20226;-74
2023/07/03 04:28:42;;;;;;;22.23;5.15;;;;;;;;;;5088652;28;20183;-74
2023/07/03 04:31:07;;;;;;;24.65;4.95;;;;;;;;;;5069894;28;20203;-73
2023/07/03 04:33:33;;;;;;;21.08;4.65;;;;;;;;;;5086757;28;20188;-74
2023/07/03 04:35:58;;;;;;;28.05;5.70;;;;;;;;;;5062574;28;20181;-74
2023/07/03 04:38:24;;;;;;;28.73;5.75;;;;;;;;;;5078386;28;20523;-74
2023/07/03 04:40:51;;;;;;;21.10;5.18;;;;;;;;;;5042224;28;1099184;-74
2023/07/03 04:43:17;;;;;;;24.92;5.47;;;;;;;;;;5090633;28;21036;-74
2023/07/03 04:45:47;;;;;;;23.98;5.32;;;;;;;;;;5082441;28;20181;-73
2023/07/03 04:48:13;;;;;;;21.77;5.03;;;;;;;;;;5080424;28;20263;-69
2023/07/03 04:50:39;;;;;;;25.83;5.75;;;;;;;;;;5103696;28;20196;-74
2023/07/03 04:53:04;;;;;;;25.50;5.78;;;;;;;;;;5084726;28;20214;-74
2023/07/03 04:55:32;;;;;;;20.50;5.47;;;;;;;;;;5077822;28;20179;-74
2023/07/03 04:57:59;;;;;;;30.10;6.38;;;;;;;;;;5086120;28;20253;-74
2023/07/03 05:00:27;;;;;;;31.25;5.82;;;;;;;;;;5089219;28;21661;-75
2023/07/03 05:02:56;;;;;;;30.92;5.70;;;;;;;;;;5088746;28;20203;-75
2023/07/03 05:05:22;;;;;;;30.35;5.40;;;;;;;;;;5086126;28;20539;-74
2023/07/03 05:07:47;;;;;;;22.23;5.15;;;;;;;;;;5077731;28;20586;-75
2023/07/03 05:10:15;;;;;;;28.75;6.50;;;;;;;;;;5089514;28;20310;-75
2023/07/03 05:12:41;;;;;;;34.70;6.20;;;;;;;;;;5067891;28;20192;-72
2023/07/03 05:15:08;;;;;;;22.67;5.47;;;;;;;;;;5080197;28;20192;-74
2023/07/03 05:17:35;;;;;;;24.17;5.25;;;;;;;;;;5083712;28;20196;-75
2023/07/03 05:20:01;;;;;;;25.30;5.93;;;;;;;;;;5085297;28;20257;-76
2023/07/03 05:22:27;;;;;;;25.80;5.97;;;;;;;;;;5081239;28;20185;-75
2023/07/03 05:24:52;;;;;;;27.92;6.63;;;;;;;;;;5097523;28;20186;-74
2023/07/03 05:27:18;;;;;;;27.33;6.13;;;;;;;;;;5091861;28;20753;-75
2023/07/03 05:29:43;;;;;;;24.38;5.55;;;;;;;;;;5090242;28;20222;-74
2023/07/03 05:32:09;;;;;;;26.60;5.95;;;;;;;;;;5077582;28;20279;-75
2023/07/03 05:34:37;;;;;;;23.10;5.80;;;;;;;;;;5078764;28;20169;-73
2023/07/03 05:37:03;;;;;;;27.17;6.40;;;;;;;;;;5067852;28;20407;-74
2023/07/03 05:39:28;;;;;;;21.73;5.32;;;;;;;;;;5081636;28;20623;-74
2023/07/03 05:41:54;;;;;;;25.98;5.43;;;;;;;;;;5084870;28;20307;-71
2023/07/03 05:44:20;;;;;;;23.83;5.82;;;;;;;;;;5086928;28;20188;-74
2023/07/03 05:46:45;;;;;;;25.27;5.93;;;;;;;;;;5076818;28;20211;-75
2023/07/03 05:49:11;;;;;;;26.67;5.85;;;;;;;;;;5062410;28;20457;-75
2023/07/03 05:51:36;;;;;;;28.48;6.63;;;;;;;;;;5085943;28;20690;-75
2023/07/03 05:54:01;;;;;;;25.27;5.70;;;;;;;;;;5081759;28;20200;-74
2023/07/03 05:56:28;;;;;;;32.25;6.50;;;;;;;;;;5069070;28;20289;-74
2023/07/03 05:58:53;;;;;;;28.65;5.60;;;;;;;;;;5085477;28;20341;-70
2023/07/03 06:01:19;;;;;;;24.77;5.72;;;;;;;;;;5080091;28;20855;-75
2023/07/03 06:03:44;;;;;;;25.63;5.68;;;;;;;;;;5084012;28;20599;-75
2023/07/03 06:06:12;;;;;;;28.98;6.05;;;;;;;;;;5079553;28;20192;-75
2023/07/03 06:08:37;;;;;;;26.50;6.25;;;;;;;;;;5084914;28;20709;-75
2023/07/03 06:11:03;;;;;;;28.40;6.90;;;;;;;;;;5080732;28;20244;-72
2023/07/03 06:13:29;;;;;;;25.63;5.95;;;;;;;;;;5083360;28;20280;-76
2023/07/03 06:15:54;;;;;;;24.13;5.05;;;;;;;;;;5086457;28;20290;-73
2023/07/03 06:18:19;;;;;;;23.77;5.90;;;;;;;;;;5079391;28;20242;-71
2023/07/03 06:20:45;;;;;;;24.42;5.78;;;;;;;;;;5083988;28;20678;-76
2023/07/03 06:23:10;;;;;;;25.98;5.75;;;;;;;;;;5071247;28;20188;-75
2023/07/03 06:25:36;;;;;;;28.95;6.10;;;;;;;;;;5087645;28;20197;-74
2023/07/03 06:28:01;;;;;;;21.73;5.05;;;;;;;;;;5090896;28;20579;-75
2023/07/03 06:30:26;;;;;;;21.70;5.55;;;;;;;;;;5085756;28;20200;-77
2023/07/03 06:32:52;;;;;;;25.38;5.80;;;;;;;;;;5084041;28;20244;-75
2023/07/03 06:35:18;;;;;;;30.30;6.25;;;;;;;;;;5080589;28;20483;-75
2023/07/03 06:37:43;;;;;;;30.73;5.55;;;;;;;;;;5069924;28;20192;-75
2023/07/03 06:40:09;;;;;;;22.02;5.22;;;;;;;;;;5086592;28;20185;-75
2023/07/03 06:42:36;;;;;;;21.73;5.35;;;;;;;;;;5081275;28;20193;-75
2023/07/03 06:45:01;;;;;;;21.13;5.43;;;;;;;;;;5082463;28;20185;-75
2023/07/03 06:47:26;;;;;;;22.98;5.10;;;;;;;;;;5078764;28;20197;-75
2023/07/03 06:49:52;;;;;;;23.00;5.10;;;;;;;;;;5075829;28;20201;-73
2023/07/03 06:52:17;;;;;;;24.50;5.18;;;;;;;;;;5082593;28;20226;-74
2023/07/03 06:54:43;;;;;;;22.70;5.35;;;;;;;;;;5089712;28;20192;-75
2023/07/03 06:57:08;;;;;;;27.13;5.22;;;;;;;;;;5092058;28;20498;-77
2023/07/03 06:59:33;;;;;;;23.30;5.20;;;;;;;;;;5079548;28;20191;-76
2023/07/03 07:01:59;;;;;;;18.23;5.18;;;;;;;;;;5071067;28;20743;-69
2023/07/03 07:04:27;;;;;;;24.08;4.53;;;;;;;;;;5081299;28;20687;-74
2023/07/03 07:06:53;;;;;;;20.02;4.75;;;;;;;;;;5066383;28;20188;-75
2023/07/03 07:09:19;;;;;;;16.52;4.03;;;;;;;;;;5079855;28;20678;-70
2023/07/03 07:11:46;;;;;;;17.85;4.47;;;;;;;;;;5076645;28;20196;-75
2023/07/03 07:14:13;;;;;;;19.40;4.43;;;;;;;;;;5075590;28;20562;-70
2023/07/03 07:16:40;;;;;;;17.60;4.40;;;;;;;;;;5072586;28;20184;-73
2023/07/03 07:19:07;;;;;;;13.48;3.72;;;;;;;;;;5064041;28;20192;-70
2023/07/03 07:21:35;;;;;;;18.67;4.18;;;;;;;;;;5073891;28;20259;-75
2023/07/03 07:24:11;;;;;;;16.85;3.58;;;;;;;;;;5082663;28;20193;-75
2023/07/03 07:26:36;;;;;;;14.32;3.47;;;;;;;;;;5078450;28;20177;-75
2023/07/03 07:29:02;;;;;;;18.02;3.65;;;;;;;;;;5089414;28;20184;-75
2023/07/03 07:31:31;;;;;;;13.60;3.67;;;;;;;;;;5077834;28;20250;-74
2023/07/03 07:33:56;;;;;;;15.38;3.53;;;;;;;;;;5069041;28;20219;-72
2023/07/03 07:36:24;;;;;;;15.25;3.92;;;;;;;;;;5073206;28;20185;-76
2023/07/03 07:38:50;;;;;;;14.65;3.75;;;;;;;;;;5067791;28;20663;-75
2023/07/03 07:41:16;;;;;;;22.02;3.80;;;;;;;;;;5077461;28;20227;-75
2023/07/03 07:43:41;;;;;;;15.80;3.08;;;;;;;;;;5071883;28;20271;-77
2023/07/03 07:46:06;;;;;;;12.85;3.00;;;;;;;;;;5071285;28;20710;-76
2023/07/03 07:48:33;;;;;;;13.35;2.90;;;;;;;;;;5066672;28;20507;-75
2023/07/03 07:50:58;;;;;;;19.20;3.75;;;;;;;;;;5088060;28;20216;-76
2023/07/03 07:53:26;;;;;;;12.55;3.10;;;;;;;;;;5073691;28;20267;-76
2023/07/03 07:55:51;;;;;;;11.77;2.88;;;;;;;;;;5086429;28;20279;-76
2023/07/03 07:58:17;;;;;;;11.60;3.20;;;;;;;;;;5069502;28;20217;-73
2023/07/03 08:00:43;;;;;;;12.98;3.00;;;;;;;;;;5073587;28;20680;-76
2023/07/03 08:03:09;;;;;;;13.50;3.08;;;;;;;;;;5073501;28;20185;-76
2023/07/03 08:05:36;;;;;;;16.13;2.70;;;;;;;;;;5075158;28;20177;-77
2023/07/03 08:08:01;;;;;;;11.18;2.78;;;;;;;;;;5078010;28;20192;-74
2023/07/03 08:10:27;;;;;;;11.93;2.65;;;;;;;;;;5095537;28;20254;-73
2023/07/03 08:12:52;;;;;;;9.63;2.60;;;;;;;;;;5118071;27;20259;-75
2023/07/03 08:15:18;;;;;;;11.13;2.70;;;;;;;;;;5075213;28;20195;-74
2023/07/03 08:17:44;;;;;;;11.57;2.47;;;;;;;;;;5071640;28;20204;-75
2023/07/03 08:20:11;;;;;;;14.85;3.25;;;;;;;;;;5079036;28;20180;-75
2023/07/03 08:22:40;;;;;;;17.45;3.60;;;;;;;;;;5085855;28;20673;-73
2023/07/03 08:25:07;;;;;;;10.82;2.78;;;;;;;;;;5090714;28;20180;-75
2023/07/03 08:27:33;;;;;;;17.15;3.28;;;;;;;;;;5071084;28;20180;-70
2023/07/03 08:29:58;;;;;;;14.43;2.50;;;;;;;;;;5087192;28;20211;-71
2023/07/03 08:32:24;;;;;;;10.90;2.88;;;;;;;;;;5084115;28;20248;-71
2023/07/03 08:34:50;;;;;;;10.55;2.53;;;;;;;;;;5085084;28;20256;-76
2023/07/03 08:37:16;;;;;;;13.57;2.85;;;;;;;;;;5077904;28;20181;-73
2023/07/03 08:39:41;;;;;;;11.82;2.90;;;;;;;;;;5084463;28;20188;-76
2023/07/03 08:42:21;;;;;;;8.07;2.20;;;;;;;;;;5074707;28;20591;-75
2023/07/03 08:44:46;;;;;;;7.93;2.45;;;;;;;;;;5071407;28;20193;-75
2023/07/03 08:47:17;;;;;;;12.50;2.95;;;;;;;;;;5074072;28;20287;-76
2023/07/03 08:49:44;;;;;;;17.70;3.58;;;;;;;;;;5073265;28;20631;-75
2023/07/03 08:52:11;;;;;;;10.13;2.83;;;;;;;;;;5076767;28;20177;-74
2023/07/03 08:54:37;;;;;;;12.27;2.40;;;;;;;;;;5061025;28;20176;-76
2023/07/03 08:57:05;;;;;;;10.85;2.08;;;;;;;;;;5073723;28;20605;-73
2023/07/03 08:59:30;;;;;;;8.13;2.50;;;;;;;;;;5066723;28;20435;-77
2023/07/03 09:02:11;;;;;;;9.63;2.13;;;;;;;;;;5069514;28;20204;-75
2023/07/03 09:04:57;;;;;;;10.20;2.88;;;;;;;;;;5078674;28;20258;-76
2023/07/03 09:07:34;;;;;;;11.05;3.15;;;;;;;;;;5081598;28;20196;-76
2023/07/03 09:10:11;;;;;;;11.25;2.92;;;;;;;;;;5081001;28;20232;-75
2023/07/03 09:12:41;;;;;;;13.63;3.50;;;;;;;;;;5076737;28;20176;-77
2023/07/03 09:15:23;;;;;;;12.23;3.30;;;;;;;;;;5077723;28;20188;-77
2023/07/03 09:17:51;;;;;;;16.48;3.55;;;;;;;;;;5069918;28;20181;-76
2023/07/03 09:20:18;;;;;;;19.92;3.80;;;;;;;;;;5079942;28;20187;-70
2023/07/03 09:23:02;;;;;;;16.83;3.58;;;;;;;;;;5077751;28;20180;-71
2023/07/03 09:25:34;;;;;;;13.70;3.65;;;;;;;;;;5085732;28;20571;-76
2023/07/03 09:28:02;;;;;;;16.50;3.70;;;;;;;;;;5078474;28;20532;-73
2023/07/03 09:30:27;;;;;;;17.65;4.07;;;;;;;;;;5086968;28;20502;-69
2023/07/03 09:32:53;;;;;;;15.30;3.95;;;;;;;;;;5058131;28;20246;-71
2023/07/03 09:35:20;;;;;;;20.63;4.18;;;;;;;;;;5083831;28;20237;-73
2023/07/03 09:37:50;;;;;;;17.77;3.88;;;;;;;;;;5086237;28;20230;-74
2023/07/03 09:40:23;;;;;;;15.73;3.65;;;;;;;;;;5080217;28;20259;-74
2023/07/03 09:42:49;;;;;;;16.08;3.60;;;;;;;;;;5073283;28;20234;-72
2023/07/03 09:45:17;;;;;;;16.23;3.78;;;;;;;;;;5087740;28;20572;-71
2023/07/03 09:47:57;;;;;;;14.48;3.70;;;;;;;;;;5072712;28;20271;-72
2023/07/03 09:50:33;;;;;;;13.00;3.72;;;;;;;;;;5089484;28;20612;-73
2023/07/03 09:53:00;;;;;;;15.18;3.60;;;;;;;;;;5075854;28;20180;-72
2023/07/03 09:55:26;;;;;;;10.88;3.17;;;;;;;;;;5090352;28;20259;-76
2023/07/03 09:57:52;;;;;;;10.35;3.08;;;;;;;;;;5090295;28;20190;-75
2023/07/03 10:00:21;;;;;;;13.43;3.33;;;;;;;;;;5090189;28;20188;-75
2023/07/03 10:02:54;;;;;;;12.50;3.35;;;;;;;;;;5083696;28;20192;-76
2023/07/03 10:05:29;;;;;;;15.52;3.53;;;;;;;;;;5083501;28;20199;-74
2023/07/03 10:07:55;;;;;;;10.77;3.28;;;;;;;;;;5079513;28;20271;-73
2023/07/03 10:10:22;;;;;;;15.15;3.70;;;;;;;;;;5089592;28;20200;-73
2023/07/03 10:13:05;;;;;;;12.57;3.20;;;;;;;;;;5082916;28;20469;-69
2023/07/03 10:15:34;;;;;;;13.18;3.13;;;;;;;;;;5075267;28;20188;-74
2023/07/03 10:18:05;;;;;;;17.08;3.40;;;;;;;;;;5076176;28;20205;-74
2023/07/03 10:20:35;;;;;;;13.95;3.03;;;;;;;;;;5087478;28;20184;-75
2023/07/03 10:23:04;;;;;;;21.23;3.28;;;;;;;;;;5086522;28;20176;-73
2023/07/03 10:25:37;;;;;;;11.15;2.97;;;;;;;;;;5090225;28;20207;-75
2023/07/03 10:28:07;;;;;;;11.88;2.80;;;;;;;;;;5081878;28;20210;-76
2023/07/03 10:30:36;;;;;;;12.85;3.30;;;;;;;;;;5089962;28;20670;-75
2023/07/03 10:33:08;;;;;;;12.15;3.45;;;;;;;;;;5076114;28;20201;-70
2023/07/03 10:35:34;;;;;;;13.95;3.42;;;;;;;;;;5077848;28;20596;-75
2023/07/03 10:38:20;;;;;;;13.23;3.70;;;;;;;;;;5080397;28;20271;-71
2023/07/03 10:41:03;;;;;;;16.92;4.68;;;;;;;;;;5080745;28;20219;-72
2023/07/03 10:43:35;;;;;;;13.73;3.13;;;;;;;;;;5070084;28;20185;-74
2023/07/03 10:46:04;;;;;;;14.32;3.58;;;;;;;;;;5067124;28;20245;-73
2023/07/03 10:48:33;;;;;;;14.30;4.15;;;;;;;;;;5082109;28;20686;-72
2023/07/03 10:51:18;;;;;;;14.93;3.20;;;;;;;;;;5086199;28;20234;-74
2023/07/03 10:53:55;;;;;;;13.55;3.70;;;;;;;;;;5081786;28;20184;-76
2023/07/03 10:56:37;;;;;;;15.55;3.55;;;;;;;;;;5080974;28;20184;-73
2023/07/03 10:59:19;;;;;;;13.13;3.33;;;;;;;;;;5078279;28;20184;-70
2023/07/03 11:02:04;;;;;;;12.52;3.03;;;;;;;;;;5080233;28;20200;-72
2023/07/03 11:04:35;;;;;;;12.45;2.88;;;;;;;;;;5078256;28;20191;-75
2023/07/03 11:07:07;;;;;;;14.27;2.97;;;;;;;;;;5073052;28;20177;-68
2023/07/03 11:10:06;;;;;;;14.55;3.08;;;;;;;;;;5078708;28;20192;-70
2023/07/03 11:12:53;;;;;;;7.13;2.28;;;;;;;;;;5086125;28;20558;-73
2023/07/03 11:15:37;;;;;;;9.05;2.80;;;;;;;;;;5075017;28;20671;-71
2023/07/03 11:18:48;;;;;;;8.43;2.78;;;;;;;;;;5077952;28;20192;-74
2023/07/03 11:21:41;;;;;;;14.20;3.13;;;;;;;;;;5086729;28;20283;-74
2023/07/03 11:24:14;;;;;;;12.65;2.33;;;;;;;;;;5083350;28;20176;-76
2023/07/03 11:26:44;;;;;;;10.65;2.55;;;;;;;;;;5078640;28;20180;-72
2023/07/03 11:29:11;;;;;;;10.23;2.97;;;;;;;;;;5080762;28;20179;-73
2023/07/03 11:31:39;;;;;;;10.98;2.60;;;;;;;;;;5079207;28;20193;-70
2023/07/03 11:34:10;;;;;;;10.30;3.15;;;;;;;;;;5079956;28;20369;-70
2023/07/03 11:36:48;;;;;;;10.30;3.05;;;;;;;;;;5080808;28;20585;-76
2023/07/03 11:39:28;;;;;;;13.02;3.08;;;;;;;;;;5080023;28;20196;-74
2023/07/03 11:42:00;;;;;;;14.10;3.42;;;;;;;;;;5079685;28;20235;-73
2023/07/03 11:44:38;;;;;;;9.70;2.60;;;;;;;;;;5081868;28;20184;-74
2023/07/03 11:47:10;;;;;;;13.20;3.10;;;;;;;;;;5082239;28;20183;-71
2023/07/03 11:49:47;;;;;;;12.25;3.50;;;;;;;;;;5082402;28;20591;-75
2023/07/03 11:52:22;;;;;;;14.15;3.03;;;;;;;;;;5076421;28;20268;-74
2023/07/03 11:55:01;;;;;;;9.63;3.05;;;;;;;;;;5074823;28;20191;-69
2023/07/03 11:57:33;;;;;;;16.35;3.03;;;;;;;;;;5072686;28;20242;-70
2023/07/03 12:00:24;;;;;;;9.98;2.75;;;;;;;;;;5079871;28;20184;-71
2023/07/03 12:03:00;;;;;;;13.55;3.28;;;;;;;;;;5086836;28;20188;-74
2023/07/03 12:05:44;;;;;;;13.60;3.35;;;;;;;;;;5071040;28;20188;-76
2023/07/03 12:08:36;;;;;;;12.70;3.13;;;;;;;;;;5073846;28;20200;-73
2023/07/03 12:11:03;;;;;;;8.77;2.30;;;;;;;;;;5083271;28;20232;-75
2023/07/03 12:13:29;;;;;;;12.70;2.55;;;;;;;;;;5088027;28;20651;-75
2023/07/03 12:15:59;;;;;;;11.75;2.40;;;;;;;;;;5088228;28;20192;-76
2023/07/03 12:18:25;;;;;;;11.52;2.75;;;;;;;;;;5082025;28;20220;-76
2023/07/03 12:21:04;;;;;;;8.85;2.55;;;;;;;;;;5080646;28;20184;-72
2023/07/03 12:23:34;;;;;;;6.80;2.13;;;;;;;;;;5081394;28;20180;-74
2023/07/03 12:26:05;;;;;;;13.02;2.58;;;;;;;;;;5084398;28;20194;-74
2023/07/03 12:28:30;;;;;;;8.90;2.22;;;;;;;;;;5079834;28;20683;-75
2023/07/03 12:31:09;;;;;;;11.90;2.33;;;;;;;;;;5077682;28;20201;-76
2023/07/03 12:33:34;;;;;;;16.00;2.63;;;;;;;;;;5060509;28;20227;-76
2023/07/03 12:36:00;;;;;;;11.00;2.63;;;;;;;;;;5064069;28;20266;-76
2023/07/03 12:38:25;;;;;;;9.25;2.42;;;;;;;;;;5089054;28;20185;-76
2023/07/03 12:40:51;;;;;;;11.25;2.45;;;;;;;;;;5043160;28;20273;-76
2023/07/03 12:43:18;;;;;;;8.30;2.53;;;;;;;;;;5081675;28;20180;-72
2023/07/03 12:45:51;;;;;;;10.10;2.50;;;;;;;;;;5084882;28;20192;-77
2023/07/03 12:48:22;;;;;;;10.70;2.13;;;;;;;;;;5087361;28;20184;-76
2023/07/03 12:50:57;;;;;;;11.57;2.58;;;;;;;;;;5076602;28;20717;-77
2023/07/03 12:53:24;;;;;;;6.45;2.13;;;;;;;;;;5085137;28;20188;-76
2023/07/03 12:55:57;;;;;;;15.63;2.72;;;;;;;;;;5093332;28;20176;-77
2023/07/03 12:58:24;;;;;;;9.95;2.67;;;;;;;;;;5091065;28;20248;-77
2023/07/03 13:01:08;;;;;;;8.65;2.13;;;;;;;;;;5066634;28;20204;-73
2023/07/03 13:03:41;;;;;;;12.55;2.78;;;;;;;;;;5082539;28;20266;-77
2023/07/03 13:06:34;;;;;;;12.70;2.60;;;;;;;;;;5076482;28;20188;-77
2023/07/03 13:09:01;;;;;;;12.25;2.58;;;;;;;;;;5068503;28;20667;-72
2023/07/03 13:11:34;;;;;;;13.50;2.95;;;;;;;;;;5082487;28;20200;-77
2023/07/03 13:14:19;;;;;;;14.23;2.60;;;;;;;;;;5069184;28;20184;-76
2023/07/03 13:16:48;;;;;;;13.15;2.67;;;;;;;;;;5088356;28;20387;-76
2023/07/03 13:19:31;;;;;;;12.10;2.53;;;;;;;;;;5083117;28;20632;-76
2023/07/03 13:22:14;;;;;;;10.63;2.28;;;;;;;;;;5083364;28;20194;-76
2023/07/03 13:24:53;;;;;;;11.07;2.80;;;;;;;;;;5103401;28;20184;-76
2023/07/03 13:27:21;;;;;;;9.88;2.75;;;;;;;;;;5067538;28;20200;-76
2023/07/03 13:29:47;;;;;;;10.25;2.40;;;;;;;;;;5103091;28;20203;-76
2023/07/03 13:32:17;;;;;;;15.43;3.08;;;;;;;;;;5085849;28;20188;-76
2023/07/03 13:34:56;;;;;;;11.05;2.10;;;;;;;;;;5080911;28;20211;-76
2023/07/03 13:37:29;;;;;;;8.90;2.30;;;;;;;;;;5107338;28;20242;-76
2023/07/03 13:39:54;;;;;;;7.85;2.08;;;;;;;;;;5080762;28;20191;-76
2023/07/03 13:42:20;;;;;;;13.65;2.63;;;;;;;;;;5086053;28;20629;-76
2023/07/03 13:44:45;;;;;;;12.02;2.58;;;;;;;;;;5092218;28;20184;-76
2023/07/03 13:47:11;;;;;;;11.80;2.63;;;;;;;;;;5087464;28;20209;-74
2023/07/03 13:49:37;;;;;;;13.38;3.20;;;;;;;;;;5072066;28;20184;-76
2023/07/03 13:52:03;;;;;;;10.63;2.65;;;;;;;;;;5086528;28;20195;-76
2023/07/03 13:54:29;;;;;;;17.23;2.42;;;;;;;;;;5085188;28;20191;-75
2023/07/03 13:56:54;;;;;;;10.18;2.22;;;;;;;;;;5075659;28;20188;-76
2023/07/03 13:59:19;;;;;;;8.23;2.53;;;;;;;;;;5088429;28;20234;-73
2023/07/03 14:01:45;;;;;;;8.73;2.65;;;;;;;;;;5087573;28;20272;-76
2023/07/03 14:04:11;;;;;;;8.85;2.35;;;;;;;;;;5076528;28;20239;-72
2023/07/03 14:06:36;;;;;;;12.57;2.60;;;;;;;;;;5081833;28;20191;-76
2023/07/03 14:09:02;;;;;;;11.65;2.08;;;;;;;;;;5088065;28;20602;-76
2023/07/03 14:11:28;;;;;;;10.00;2.35;;;;;;;;;;5076690;28;20327;-76
2023/07/03 14:13:55;;;;;;;8.98;2.40;;;;;;;;;;5070015;28;20355;-72
2023/07/03 14:16:20;;;;;;;7.25;2.17;;;;;;;;;;5077873;28;20184;-76
2023/07/03 14:18:45;;;;;;;13.88;2.05;;;;;;;;;;5079859;28;20194;-76
2023/07/03 14:21:13;;;;;;;10.68;2.47;;;;;;;;;;5083282;28;20251;-76
2023/07/03 14:23:38;;;;;;;11.65;2.67;;;;;;;;;;5086200;28;20229;-76
2023/07/03 14:26:04;;;;;;;11.93;2.30;;;;;;;;;;5087338;28;20188;-76
2023/07/03 14:28:30;;;;;;;7.25;2.25;;;;;;;;;;5083892;28;20224;-74
2023/07/03 14:30:55;;;;;;;7.07;2.00;;;;;;;;;;5083983;28;20215;-72
2023/07/03 14:33:21;;;;;;;11.07;2.05;;;;;;;;;;5085039;28;20184;-76
2023/07/03 14:35:47;;;;;;;9.68;1.80;;;;;;;;;;5063943;28;20183;-75
2023/07/03 14:38:12;;;;;;;9.57;1.90;;;;;;;;;;5089580;28;20502;-75
2023/07/03 14:40:38;;;;;;;9.98;1.95;;;;;;;;;;5072631;28;20240;-76